Amherst, Colorado
Current Conditions -  °F | °C
As of 12:35 PM on Tuesday 21 Oct 2014 (Local Time) from KHEQ Reporting Station
Clear Clear  
Wind Chill: 26°   Ceiling: Unl
Heat Index: 26°   Visibility: 10mi
Dew Point: 10°   Wind: 14mph
Humidity: 36%   Direction: 160°SSE
Pressure: 29.95"   Gusts: 23mph
Location:  40.68°N, 102.17°W
Report Text: KHEQ 211835Z AUTO 16012G20KT 10SM CLR 26/10 A2995 RMK AO2
Loading
Personal Weather Stations






























Interactive Weather Map
Tropical Storm Tracking
New forecast layout! Learn more

10-Day Weather Forecast

Advertisements
Track Severe Weather on mobile